Airfield :







YOU CAN JOIN US ON...

 
LOGIN :

Register | Disclaimer

   EN    FR    IT 

 









Legend :    VFR   Marginal VFR   IFR   Intensive IFR   Very Intensive IFR
Visi :
Ceiling :
>= 8 km
>= 3000ft
5 to 8 km
1000 to 3000 ft
1500m to 5 km
500 to 1000 ft
800 to 1500m
200 to 500 ft
< 800m
< 200 ft
Symbols :   Thunderstorms  Fog  Heavy snow  Heavy precipitations  Wind > 20 kt






- Airport Elevation : 477 ft
- IATA code : YHZ


CYHZ - Halifax Stanfield Int.

CURRENT METAR :
  • 271500Z 09013G27KT 15SM FEW012 OVC048 M01/M03 A2989 RMK SF2SC6 PRESFR SLP129

EXPIRED METARs :
  • 271400Z 10017G25KT 15SM FEW010 OVC047 M01/M03 A2994 RMK SF2SC6 SLP148
  • 271300Z 10017KT 15SM SCT008 OVC047 M01/M03 A2999 RMK SF3SC5 SLP162
  • 271217Z 09013G19KT 15SM BKN008 OVC048 M01/M02 A3001 RMK SF6SC2 SLP169

TAF TAF CYHZ
Valid from the 27 at 15:00 until the 28 at 12:00 UTC


271438Z 2715/2812 10015G25KT 6SM -SN SCT008 OVC040
TEMPO 2715/2716 2SM -SN OVC008
FM271600 10017G27KT 2SM -SN OVC010
TEMPO 2716/2717 3/4SM -SN BLSN VV004
PROB30 2716/2717 2SM -SNPL
FM271700 10020G30KT 1/2SM SN BLSN VV004
TEMPO 2717/2718 1SM -SNPL
FM271800 10025G35KT 3/4SM -SNPL OVC004
FM271900 10025G35KT 2SM -PL BR OVC004
PROB30 2719/2722 3SM -FZRA BR
FM272200 10022G32KT 11/2SM -RA -DZ BR OVC003
BECMG 2800/2802 22012G22KT
FM280400 22015G25KT P6SM BKN015
FM281000 24015G25KT P6SM BKN030 RMK NXT FCST BY 271800Z



MET'MAP, your aeronautical weather chart ! - Copyright ORBIFLY December 2007 - Disclaimer

ORBIFLY MET'MAP TEAM :

Programming & Development : Alexandra Zaïnal
Concept & original design : Baudouin d'Aumeries
Assistance for programming : Marc-Olivier Méhu
Technical & hardware support : Manuel Goepfert

Contact : metmap@orbifly.com




SOURCES & CREDITS :

   NOAA